<?xml version="1.0" encoding="UTF-8" standalone="no" ?>
<gpx xmlns="http://www.topografix.com/GPX/1/1" xmlns:xsi="http://www.w3.org/2001/XMLSchema-instance" xsi:schemaLocation="http://www.topografix.com/GPX/1/1 http://www.topografix.com/GPX/1/1/gpx.xsd" version="1.1" creator="VisuGPX - https://www.visugpx.com">
  <metadata>
    <name>14959254-chapelle st julien des chazes</name>
    <desc><![CDATA[circuit non balisé à faire avec la carte en main.]]></desc>
  </metadata>
  <trk>
    <name><![CDATA[14959254-chapelle st julien des chazes]]></name>
    <trkseg>
      <trkpt lat="45.02768" lon="3.59377">
        <ele>547</ele>
        <time>2022-06-14T03:48:06Z</time>
      </trkpt>
      <trkpt lat="45.02854" lon="3.59427">
        <ele>544</ele>
        <time>2022-06-14T03:50:10Z</time>
      </trkpt>
      <trkpt lat="45.02888" lon="3.59461">
        <ele>544</ele>
        <time>2022-06-14T03:51:06Z</time>
      </trkpt>
      <trkpt lat="45.02959" lon="3.5946">
        <ele>551</ele>
        <time>2022-06-14T03:52:40Z</time>
      </trkpt>
      <trkpt lat="45.02972" lon="3.59401">
        <ele>547</ele>
        <time>2022-06-14T03:53:39Z</time>
      </trkpt>
      <trkpt lat="45.02989" lon="3.59387">
        <ele>548</ele>
        <time>2022-06-14T03:54:05Z</time>
      </trkpt>
      <trkpt lat="45.03005" lon="3.59355">
        <ele>550</ele>
        <time>2022-06-14T03:54:42Z</time>
      </trkpt>
      <trkpt lat="45.03043" lon="3.59341">
        <ele>564</ele>
        <time>2022-06-14T03:55:34Z</time>
      </trkpt>
      <trkpt lat="45.03093" lon="3.59326">
        <ele>574</ele>
        <time>2022-06-14T03:56:42Z</time>
      </trkpt>
      <trkpt lat="45.03146" lon="3.59361">
        <ele>592</ele>
        <time>2022-06-14T03:58:01Z</time>
      </trkpt>
      <trkpt lat="45.03191" lon="3.5938">
        <ele>599</ele>
        <time>2022-06-14T03:59:03Z</time>
      </trkpt>
      <trkpt lat="45.03237" lon="3.59384">
        <ele>598</ele>
        <time>2022-06-14T04:00:05Z</time>
      </trkpt>
      <trkpt lat="45.03263" lon="3.59396">
        <ele>603</ele>
        <time>2022-06-14T04:00:41Z</time>
      </trkpt>
      <trkpt lat="45.03285" lon="3.5941">
        <ele>611</ele>
        <time>2022-06-14T04:01:13Z</time>
      </trkpt>
      <trkpt lat="45.0331" lon="3.5942">
        <ele>618</ele>
        <time>2022-06-14T04:01:48Z</time>
      </trkpt>
      <trkpt lat="45.03257" lon="3.59447">
        <ele>622</ele>
        <time>2022-06-14T04:03:03Z</time>
      </trkpt>
      <trkpt lat="45.03217" lon="3.59445">
        <ele>623</ele>
        <time>2022-06-14T04:03:57Z</time>
      </trkpt>
      <trkpt lat="45.03216" lon="3.59432">
        <ele>618</ele>
        <time>2022-06-14T04:04:09Z</time>
      </trkpt>
      <trkpt lat="45.03183" lon="3.5943">
        <ele>620</ele>
        <time>2022-06-14T04:04:53Z</time>
      </trkpt>
      <trkpt lat="45.03208" lon="3.5947">
        <ele>632</ele>
        <time>2022-06-14T04:05:43Z</time>
      </trkpt>
      <trkpt lat="45.03288" lon="3.59467">
        <ele>633</ele>
        <time>2022-06-14T04:07:30Z</time>
      </trkpt>
      <trkpt lat="45.03357" lon="3.59412">
        <ele>624</ele>
        <time>2022-06-14T04:09:16Z</time>
      </trkpt>
      <trkpt lat="45.03387" lon="3.59379">
        <ele>620</ele>
        <time>2022-06-14T04:10:07Z</time>
      </trkpt>
      <trkpt lat="45.03446" lon="3.593">
        <ele>611</ele>
        <time>2022-06-14T04:11:55Z</time>
      </trkpt>
      <trkpt lat="45.03471" lon="3.59263">
        <ele>607</ele>
        <time>2022-06-14T04:12:43Z</time>
      </trkpt>
      <trkpt lat="45.03514" lon="3.5918">
        <ele>598</ele>
        <time>2022-06-14T04:14:20Z</time>
      </trkpt>
      <trkpt lat="45.03533" lon="3.59104">
        <ele>590</ele>
        <time>2022-06-14T04:15:36Z</time>
      </trkpt>
      <trkpt lat="45.03576" lon="3.59013">
        <ele>588</ele>
        <time>2022-06-14T04:17:20Z</time>
      </trkpt>
      <trkpt lat="45.03658" lon="3.59117">
        <ele>605</ele>
        <time>2022-06-14T04:19:47Z</time>
      </trkpt>
      <trkpt lat="45.03676" lon="3.59037">
        <ele>586</ele>
        <time>2022-06-14T04:21:06Z</time>
      </trkpt>
      <trkpt lat="45.0375" lon="3.5901">
        <ele>575</ele>
        <time>2022-06-14T04:22:48Z</time>
      </trkpt>
      <trkpt lat="45.03855" lon="3.5906">
        <ele>570</ele>
        <time>2022-06-14T04:25:16Z</time>
      </trkpt>
      <trkpt lat="45.03924" lon="3.59082">
        <ele>550</ele>
        <time>2022-06-14T04:26:50Z</time>
      </trkpt>
      <trkpt lat="45.03924" lon="3.59033">
        <ele>542</ele>
        <time>2022-06-14T04:27:36Z</time>
      </trkpt>
      <trkpt lat="45.0402" lon="3.59075">
        <ele>536</ele>
        <time>2022-06-14T04:29:50Z</time>
      </trkpt>
      <trkpt lat="45.04048" lon="3.59014">
        <ele>533</ele>
        <time>2022-06-14T04:30:59Z</time>
      </trkpt>
      <trkpt lat="45.04175" lon="3.5918">
        <ele>536</ele>
        <time>2022-06-14T04:34:49Z</time>
      </trkpt>
      <trkpt lat="45.04234" lon="3.59256">
        <ele>542</ele>
        <time>2022-06-14T04:36:36Z</time>
      </trkpt>
      <trkpt lat="45.04373" lon="3.59288">
        <ele>561</ele>
        <time>2022-06-14T04:39:44Z</time>
      </trkpt>
      <trkpt lat="45.0445" lon="3.59231">
        <ele>543</ele>
        <time>2022-06-14T04:41:40Z</time>
      </trkpt>
      <trkpt lat="45.04559" lon="3.59134">
        <ele>537</ele>
        <time>2022-06-14T04:44:32Z</time>
      </trkpt>
      <trkpt lat="45.04589" lon="3.59218">
        <ele>559</ele>
        <time>2022-06-14T04:46:00Z</time>
      </trkpt>
      <trkpt lat="45.04633" lon="3.59153">
        <ele>558</ele>
        <time>2022-06-14T04:47:25Z</time>
      </trkpt>
      <trkpt lat="45.0459" lon="3.59111">
        <ele>538</ele>
        <time>2022-06-14T04:48:35Z</time>
      </trkpt>
      <trkpt lat="45.04488" lon="3.59178">
        <ele>533</ele>
        <time>2022-06-14T04:51:05Z</time>
      </trkpt>
      <trkpt lat="45.0438" lon="3.59271">
        <ele>552</ele>
        <time>2022-06-14T04:53:54Z</time>
      </trkpt>
      <trkpt lat="45.04264" lon="3.5925">
        <ele>540</ele>
        <time>2022-06-14T04:56:30Z</time>
      </trkpt>
      <trkpt lat="45.04195" lon="3.59168">
        <ele>534</ele>
        <time>2022-06-14T04:58:30Z</time>
      </trkpt>
      <trkpt lat="45.04109" lon="3.59073">
        <ele>532</ele>
        <time>2022-06-14T05:00:56Z</time>
      </trkpt>
      <trkpt lat="45.04055" lon="3.58989">
        <ele>533</ele>
        <time>2022-06-14T05:02:43Z</time>
      </trkpt>
      <trkpt lat="45.0401" lon="3.59077">
        <ele>536</ele>
        <time>2022-06-14T05:04:25Z</time>
      </trkpt>
      <trkpt lat="45.03916" lon="3.59014">
        <ele>540</ele>
        <time>2022-06-14T05:06:44Z</time>
      </trkpt>
      <trkpt lat="45.03923" lon="3.591">
        <ele>555</ele>
        <time>2022-06-14T05:08:06Z</time>
      </trkpt>
      <trkpt lat="45.03751" lon="3.59029">
        <ele>583</ele>
        <time>2022-06-14T05:12:05Z</time>
      </trkpt>
      <trkpt lat="45.03686" lon="3.5905">
        <ele>589</ele>
        <time>2022-06-14T05:13:34Z</time>
      </trkpt>
      <trkpt lat="45.03668" lon="3.59124">
        <ele>606</ele>
        <time>2022-06-14T05:14:47Z</time>
      </trkpt>
      <trkpt lat="45.03637" lon="3.59112">
        <ele>605</ele>
        <time>2022-06-14T05:15:30Z</time>
      </trkpt>
      <trkpt lat="45.03575" lon="3.59029">
        <ele>590</ele>
        <time>2022-06-14T05:17:24Z</time>
      </trkpt>
      <trkpt lat="45.03539" lon="3.59113">
        <ele>594</ele>
        <time>2022-06-14T05:18:57Z</time>
      </trkpt>
      <trkpt lat="45.03529" lon="3.59169">
        <ele>600</ele>
        <time>2022-06-14T05:19:51Z</time>
      </trkpt>
      <trkpt lat="45.03499" lon="3.59237">
        <ele>610</ele>
        <time>2022-06-14T05:21:07Z</time>
      </trkpt>
      <trkpt lat="45.03463" lon="3.59294">
        <ele>615</ele>
        <time>2022-06-14T05:22:19Z</time>
      </trkpt>
      <trkpt lat="45.03428" lon="3.59347">
        <ele>622</ele>
        <time>2022-06-14T05:23:27Z</time>
      </trkpt>
      <trkpt lat="45.03378" lon="3.59398">
        <ele>625</ele>
        <time>2022-06-14T05:24:50Z</time>
      </trkpt>
      <trkpt lat="45.03337" lon="3.59444">
        <ele>630</ele>
        <time>2022-06-14T05:26:00Z</time>
      </trkpt>
      <trkpt lat="45.03299" lon="3.59464">
        <ele>632</ele>
        <time>2022-06-14T05:26:54Z</time>
      </trkpt>
      <trkpt lat="45.03241" lon="3.59479">
        <ele>634</ele>
        <time>2022-06-14T05:28:12Z</time>
      </trkpt>
      <trkpt lat="45.03196" lon="3.59469">
        <ele>633</ele>
        <time>2022-06-14T05:29:13Z</time>
      </trkpt>
      <trkpt lat="45.03176" lon="3.59418">
        <ele>617</ele>
        <time>2022-06-14T05:30:08Z</time>
      </trkpt>
      <trkpt lat="45.03218" lon="3.59422">
        <ele>615</ele>
        <time>2022-06-14T05:31:04Z</time>
      </trkpt>
      <trkpt lat="45.0322" lon="3.5946">
        <ele>628</ele>
        <time>2022-06-14T05:31:40Z</time>
      </trkpt>
      <trkpt lat="45.03265" lon="3.59455">
        <ele>626</ele>
        <time>2022-06-14T05:32:40Z</time>
      </trkpt>
      <trkpt lat="45.03304" lon="3.59432">
        <ele>622</ele>
        <time>2022-06-14T05:33:37Z</time>
      </trkpt>
      <trkpt lat="45.03321" lon="3.59406">
        <ele>614</ele>
        <time>2022-06-14T05:34:10Z</time>
      </trkpt>
      <trkpt lat="45.03281" lon="3.59397">
        <ele>606</ele>
        <time>2022-06-14T05:35:04Z</time>
      </trkpt>
      <trkpt lat="45.03265" lon="3.59384">
        <ele>598</ele>
        <time>2022-06-14T05:35:29Z</time>
      </trkpt>
      <trkpt lat="45.03237" lon="3.59371">
        <ele>592</ele>
        <time>2022-06-14T05:36:08Z</time>
      </trkpt>
      <trkpt lat="45.03192" lon="3.5937">
        <ele>595</ele>
        <time>2022-06-14T05:37:08Z</time>
      </trkpt>
      <trkpt lat="45.03146" lon="3.59348">
        <ele>586</ele>
        <time>2022-06-14T05:38:13Z</time>
      </trkpt>
      <trkpt lat="45.03099" lon="3.59312">
        <ele>569</ele>
        <time>2022-06-14T05:39:24Z</time>
      </trkpt>
      <trkpt lat="45.0306" lon="3.59327">
        <ele>566</ele>
        <time>2022-06-14T05:40:18Z</time>
      </trkpt>
      <trkpt lat="45.03015" lon="3.59342">
        <ele>553</ele>
        <time>2022-06-14T05:41:20Z</time>
      </trkpt>
      <trkpt lat="45.02988" lon="3.59368">
        <ele>547</ele>
        <time>2022-06-14T05:42:04Z</time>
      </trkpt>
      <trkpt lat="45.02972" lon="3.59385">
        <ele>547</ele>
        <time>2022-06-14T05:42:30Z</time>
      </trkpt>
      <trkpt lat="45.02958" lon="3.59432">
        <ele>548</ele>
        <time>2022-06-14T05:43:18Z</time>
      </trkpt>
      <trkpt lat="45.02947" lon="3.59448">
        <ele>548</ele>
        <time>2022-06-14T05:43:39Z</time>
      </trkpt>
      <trkpt lat="45.02902" lon="3.59455">
        <ele>544</ele>
        <time>2022-06-14T05:44:40Z</time>
      </trkpt>
      <trkpt lat="45.02876" lon="3.59435">
        <ele>544</ele>
        <time>2022-06-14T05:45:19Z</time>
      </trkpt>
      <trkpt lat="45.02833" lon="3.59404">
        <ele>544</ele>
        <time>2022-06-14T05:46:24Z</time>
      </trkpt>
      <trkpt lat="45.02776" lon="3.59355">
        <ele>547</ele>
        <time>2022-06-14T05:47:53Z</time>
      </trkpt>
      <trkpt lat="45.02779" lon="3.59333">
        <ele>547</ele>
        <time>2022-06-14T05:48:14Z</time>
      </trkpt>
    </trkseg>
  </trk>
</gpx>